Time;durP1;ratioP1;P1;durP2;ratioP2;P2;SDS_P1;SDS_P2;PMS_P1;PMS_P2;Temp;Humidity;BMP_temperature;BMP_pressure;BME280_temperature;BME280_humidity;BME280_pressure;Samples;Min_cycle;Max_cycle;Signal;HPM_P1;HPM_P2
2023/09/06 00:01:30;;;;;;;5.83;2.57;;;;;;;;;;5055663;28;20240;-87
2023/09/06 00:03:57;;;;;;;2.83;2.40;;;;;;;;;;5056472;28;20221;-87
2023/09/06 00:06:24;;;;;;;2.47;2.20;;;;;;;;;;5053904;28;20242;-87
2023/09/06 00:08:53;;;;;;;5.33;2.60;;;;;;;;;;5054537;28;20202;-87
2023/09/06 00:11:20;;;;;;;4.83;2.40;;;;;;;;;;5054742;28;20234;-87
2023/09/06 00:13:47;;;;;;;2.50;2.30;;;;;;;;;;5055602;28;20202;-87
2023/09/06 00:16:15;;;;;;;2.30;2.10;;;;;;;;;;5053882;28;20249;-87
2023/09/06 00:18:42;;;;;;;2.23;2.10;;;;;;;;;;5055661;28;20209;-87
2023/09/06 00:21:10;;;;;;;2.40;2.10;;;;;;;;;;5054709;28;20728;-87
2023/09/06 00:23:37;;;;;;;2.87;2.40;;;;;;;;;;5055197;28;20660;-87
2023/09/06 00:26:05;;;;;;;2.27;2.03;;;;;;;;;;5053433;28;20234;-86
2023/09/06 00:28:32;;;;;;;4.30;2.70;;;;;;;;;;5053980;28;20206;-89
2023/09/06 00:30:59;;;;;;;2.60;2.40;;;;;;;;;;5053288;28;20240;-87
2023/09/06 00:33:29;;;;;;;4.20;2.77;;;;;;;;;;5053484;28;20206;-87
2023/09/06 00:35:57;;;;;;;4.57;2.40;;;;;;;;;;5053420;28;20234;-88
2023/09/06 00:38:24;;;;;;;5.53;2.97;;;;;;;;;;5054155;28;20202;-88
2023/09/06 00:40:53;;;;;;;2.97;2.60;;;;;;;;;;5053436;28;20257;-87
2023/09/06 00:43:21;;;;;;;2.93;2.63;;;;;;;;;;5053704;28;20682;-88
2023/09/06 00:45:50;;;;;;;3.93;3.03;;;;;;;;;;5053158;28;20233;-88
2023/09/06 00:48:19;;;;;;;6.60;3.00;;;;;;;;;;5053849;28;20297;-88
2023/09/06 00:50:46;;;;;;;3.77;2.90;;;;;;;;;;5052764;28;20614;-87
2023/09/06 00:53:14;;;;;;;4.53;3.00;;;;;;;;;;5054949;28;20206;-88
2023/09/06 00:55:41;;;;;;;3.10;2.90;;;;;;;;;;5054569;28;20246;-88
2023/09/06 00:58:09;;;;;;;3.40;3.10;;;;;;;;;;5054894;28;20199;-88
2023/09/06 01:00:38;;;;;;;3.17;2.87;;;;;;;;;;5054567;28;20232;-87
2023/09/06 01:03:05;;;;;;;4.27;3.03;;;;;;;;;;5055073;28;20186;-88
2023/09/06 01:05:34;;;;;;;3.27;2.97;;;;;;;;;;5054335;28;20260;-88
2023/09/06 01:08:04;;;;;;;4.73;3.00;;;;;;;;;;5052946;28;20226;-88
2023/09/06 01:10:32;;;;;;;2.97;2.77;;;;;;;;;;5053777;28;20238;-88
2023/09/06 01:12:59;;;;;;;4.43;2.97;;;;;;;;;;5053479;28;20221;-88
2023/09/06 01:15:26;;;;;;;3.27;2.97;;;;;;;;;;5052729;28;20241;-88
2023/09/06 01:17:55;;;;;;;3.23;2.93;;;;;;;;;;5054475;28;20591;-88
2023/09/06 01:20:27;;;;;;;2.83;2.60;;;;;;;;;;5052975;28;20237;-88
2023/09/06 01:22:59;;;;;;;3.30;3.00;;;;;;;;;;5054393;28;20298;-87
2023/09/06 01:25:27;;;;;;;3.43;2.63;;;;;;;;;;5054253;28;20234;-88
2023/09/06 01:27:54;;;;;;;2.83;2.63;;;;;;;;;;5054035;28;20237;-89
2023/09/06 01:30:21;;;;;;;3.20;2.60;;;;;;;;;;5054128;28;20268;-88
2023/09/06 01:32:48;;;;;;;3.20;2.60;;;;;;;;;;5054859;28;20210;-87
2023/09/06 01:35:16;;;;;;;4.40;3.43;;;;;;;;;;5046277;28;20233;-87
2023/09/06 01:37:43;;;;;;;3.43;2.40;;;;;;;;;;5055033;28;20276;-87
2023/09/06 01:40:17;;;;;;;2.73;2.30;;;;;;;;;;5054169;28;20354;-88
2023/09/06 01:42:45;;;;;;;2.57;2.37;;;;;;;;;;5054028;28;20232;-87
2023/09/06 01:45:14;;;;;;;2.40;2.30;;;;;;;;;;5052968;28;20230;-87
2023/09/06 01:47:41;;;;;;;5.77;3.50;;;;;;;;;;5053015;28;20234;-87
2023/09/06 01:50:09;;;;;;;2.50;2.30;;;;;;;;;;5052434;28;20225;-87
2023/09/06 01:52:36;;;;;;;2.30;2.10;;;;;;;;;;5053369;28;20854;-88
2023/09/06 01:55:05;;;;;;;3.87;2.10;;;;;;;;;;5054226;28;20599;-88
2023/09/06 01:57:32;;;;;;;2.20;2.00;;;;;;;;;;5054439;28;20715;-88
2023/09/06 02:00:00;;;;;;;2.23;2.03;;;;;;;;;;5054036;28;20695;-88
2023/09/06 02:02:27;;;;;;;4.23;2.13;;;;;;;;;;5054563;28;20578;-88
2023/09/06 02:04:55;;;;;;;4.97;2.27;;;;;;;;;;5054514;28;20201;-88
2023/09/06 02:07:26;;;;;;;3.00;2.10;;;;;;;;;;5054883;28;20237;-88
2023/09/06 02:09:55;;;;;;;2.10;2.00;;;;;;;;;;5054187;28;20232;-87
2023/09/06 02:12:22;;;;;;;2.07;1.90;;;;;;;;;;5054833;28;20195;-87
2023/09/06 02:14:52;;;;;;;1.70;1.60;;;;;;;;;;5054223;28;20205;-87
2023/09/06 02:17:21;;;;;;;2.37;2.07;;;;;;;;;;5034553;28;20215;-87
2023/09/06 02:19:48;;;;;;;2.40;2.20;;;;;;;;;;5050374;28;20217;-87
2023/09/06 02:22:15;;;;;;;1.90;1.80;;;;;;;;;;5054150;28;20220;-87
2023/09/06 02:24:42;;;;;;;2.27;2.10;;;;;;;;;;5052454;28;20213;-87
2023/09/06 02:27:10;;;;;;;4.27;2.17;;;;;;;;;;5052816;28;20230;-87
2023/09/06 02:29:37;;;;;;;2.17;1.97;;;;;;;;;;5054095;28;20237;-87
2023/09/06 02:32:04;;;;;;;4.13;2.30;;;;;;;;;;5054371;28;20221;-87
2023/09/06 02:34:33;;;;;;;2.03;1.93;;;;;;;;;;5054569;28;20309;-87
2023/09/06 02:37:00;;;;;;;2.93;2.20;;;;;;;;;;5053498;28;20237;-87
2023/09/06 02:39:28;;;;;;;2.17;2.07;;;;;;;;;;5055432;28;20205;-88
2023/09/06 02:41:55;;;;;;;2.93;2.33;;;;;;;;;;5057295;28;20222;-87
2023/09/06 02:44:22;;;;;;;2.93;2.67;;;;;;;;;;5057887;28;20214;-88
2023/09/06 02:46:52;;;;;;;4.90;2.77;;;;;;;;;;5056811;28;20241;-88
2023/09/06 02:49:19;;;;;;;2.70;2.50;;;;;;;;;;5057276;28;20214;-88
2023/09/06 02:51:47;;;;;;;6.07;2.47;;;;;;;;;;5056995;28;20221;-88
2023/09/06 02:54:17;;;;;;;2.97;2.77;;;;;;;;;;5057484;28;20818;-88
2023/09/06 02:56:45;;;;;;;5.10;2.77;;;;;;;;;;5056937;28;20226;-88
2023/09/06 02:59:15;;;;;;;3.70;3.10;;;;;;;;;;5057031;28;20664;-87
2023/09/06 03:01:44;;;;;;;5.63;2.50;;;;;;;;;;5056792;28;20317;-88
2023/09/06 03:04:13;;;;;;;5.17;2.47;;;;;;;;;;5057341;28;20272;-87
2023/09/06 03:06:43;;;;;;;2.70;2.50;;;;;;;;;;5056841;28;20241;-88
2023/09/06 03:09:11;;;;;;;2.57;2.37;;;;;;;;;;5057905;28;20284;-88
2023/09/06 03:11:39;;;;;;;3.20;2.63;;;;;;;;;;5056679;28;20579;-88
2023/09/06 03:14:06;;;;;;;3.47;2.20;;;;;;;;;;5057140;28;20198;-88
2023/09/06 03:16:38;;;;;;;6.03;2.60;;;;;;;;;;5056482;28;20660;-87
2023/09/06 03:19:09;;;;;;;3.10;2.73;;;;;;;;;;5057379;28;20313;-88
2023/09/06 03:21:37;;;;;;;2.90;2.70;;;;;;;;;;5056583;28;20761;-88
2023/09/06 03:24:11;;;;;;;3.07;2.40;;;;;;;;;;5056958;28;20214;-88
2023/09/06 03:26:43;;;;;;;1.97;1.87;;;;;;;;;;5055012;28;20243;-88
2023/09/06 03:29:11;;;;;;;2.50;2.00;;;;;;;;;;5055353;28;20210;-88
2023/09/06 03:31:42;;;;;;;4.93;2.33;;;;;;;;;;5054955;28;20221;-88
2023/09/06 03:34:13;;;;;;;2.30;2.20;;;;;;;;;;5054866;28;20194;-88
2023/09/06 03:36:41;;;;;;;3.63;2.30;;;;;;;;;;5056120;28;20238;-88
2023/09/06 03:39:14;;;;;;;2.20;2.00;;;;;;;;;;5056309;28;20224;-88
2023/09/06 03:41:42;;;;;;;2.70;2.10;;;;;;;;;;5056658;28;20230;-88
2023/09/06 03:44:10;;;;;;;4.40;2.30;;;;;;;;;;5054919;28;20252;-87
2023/09/06 03:46:37;;;;;;;3.67;2.50;;;;;;;;;;5054357;28;20238;-88
2023/09/06 03:49:05;;;;;;;2.90;2.70;;;;;;;;;;5055918;28;20228;-88
2023/09/06 03:51:34;;;;;;;6.17;2.50;;;;;;;;;;5055436;28;20261;-89
2023/09/06 03:54:05;;;;;;;4.90;2.30;;;;;;;;;;5055815;28;20593;-88
2023/09/06 03:56:33;;;;;;;2.87;2.40;;;;;;;;;;5054019;28;20257;-89
2023/09/06 03:59:02;;;;;;;5.77;2.47;;;;;;;;;;5054445;28;20293;-88
2023/09/06 04:01:29;;;;;;;4.43;2.50;;;;;;;;;;5053905;28;20222;-89
2023/09/06 04:03:56;;;;;;;2.90;2.70;;;;;;;;;;5054548;28;20197;-88
2023/09/06 04:06:25;;;;;;;3.80;2.70;;;;;;;;;;5053710;28;20221;-87
2023/09/06 04:08:53;;;;;;;3.30;2.60;;;;;;;;;;5055492;28;20213;-88
2023/09/06 04:11:20;;;;;;;2.83;2.13;;;;;;;;;;5055058;28;20419;-88
2023/09/06 04:13:47;;;;;;;2.73;2.53;;;;;;;;;;5057300;28;20198;-88
2023/09/06 04:16:16;;;;;;;3.33;2.50;;;;;;;;;;5054861;28;20245;-88
2023/09/06 04:18:43;;;;;;;2.60;2.40;;;;;;;;;;5055765;28;20648;-88
2023/09/06 04:21:10;;;;;;;2.93;2.73;;;;;;;;;;5055126;28;20723;-88
2023/09/06 04:23:39;;;;;;;3.73;2.70;;;;;;;;;;5051589;28;20218;-87
2023/09/06 04:26:06;;;;;;;3.20;2.80;;;;;;;;;;5055123;28;20265;-88
2023/09/06 04:28:33;;;;;;;2.50;2.30;;;;;;;;;;5056202;28;20221;-88
2023/09/06 04:31:03;;;;;;;3.13;2.57;;;;;;;;;;5054998;28;20221;-88
2023/09/06 04:33:31;;;;;;;5.03;2.50;;;;;;;;;;5056501;28;20229;-88
2023/09/06 04:35:59;;;;;;;2.50;2.30;;;;;;;;;;5055000;28;20238;-88
2023/09/06 04:38:26;;;;;;;2.70;2.50;;;;;;;;;;5055624;28;20190;-88
2023/09/06 04:40:53;;;;;;;2.77;2.50;;;;;;;;;;5055055;28;20213;-88
2023/09/06 04:43:22;;;;;;;4.07;2.90;;;;;;;;;;5055482;28;20198;-88
2023/09/06 04:45:50;;;;;;;2.60;2.40;;;;;;;;;;5054681;28;20320;-88
2023/09/06 04:48:17;;;;;;;2.73;2.30;;;;;;;;;;5053209;28;20217;-88
2023/09/06 04:50:46;;;;;;;3.50;2.93;;;;;;;;;;5052517;28;20242;-89
2023/09/06 04:53:17;;;;;;;5.50;2.50;;;;;;;;;;5052209;28;20202;-88
2023/09/06 04:55:44;;;;;;;2.60;2.40;;;;;;;;;;5052438;28;20226;-88
2023/09/06 04:58:11;;;;;;;2.60;2.40;;;;;;;;;;5054388;28;20565;-88
2023/09/06 05:00:41;;;;;;;2.50;2.30;;;;;;;;;;5053845;28;20241;-88
2023/09/06 05:03:11;;;;;;;2.50;2.33;;;;;;;;;;5054432;28;20729;-88
2023/09/06 05:05:38;;;;;;;3.37;2.67;;;;;;;;;;5054467;28;20321;-88
2023/09/06 05:08:07;;;;;;;2.83;2.60;;;;;;;;;;5057010;28;20715;-88
2023/09/06 05:10:35;;;;;;;2.53;2.30;;;;;;;;;;5057677;28;20328;-89
2023/09/06 05:13:02;;;;;;;2.50;2.30;;;;;;;;;;5054267;28;20217;-87
2023/09/06 05:15:29;;;;;;;2.57;2.37;;;;;;;;;;5053703;28;20226;-87
2023/09/06 05:17:56;;;;;;;3.70;2.43;;;;;;;;;;5054390;28;20229;-88
2023/09/06 05:20:25;;;;;;;2.97;2.57;;;;;;;;;;5053710;28;20238;-88
2023/09/06 05:22:52;;;;;;;3.33;2.53;;;;;;;;;;5054336;28;20252;-88
2023/09/06 05:25:20;;;;;;;2.30;2.20;;;;;;;;;;5053555;28;20237;-87
2023/09/06 05:27:47;;;;;;;2.97;2.40;;;;;;;;;;5050738;28;20680;-89
2023/09/06 05:30:15;;;;;;;2.50;2.30;;;;;;;;;;5053368;28;20234;-89
2023/09/06 05:32:42;;;;;;;2.50;2.30;;;;;;;;;;5051117;28;20218;-89
2023/09/06 05:35:09;;;;;;;2.57;2.37;;;;;;;;;;5053205;28;20225;-89
2023/09/06 05:37:36;;;;;;;3.03;2.50;;;;;;;;;;5052501;28;20226;-87
2023/09/06 05:40:04;;;;;;;3.10;2.90;;;;;;;;;;5053377;28;20237;-88
2023/09/06 05:42:33;;;;;;;5.03;3.10;;;;;;;;;;5053937;28;20202;-89
2023/09/06 05:45:00;;;;;;;3.77;2.97;;;;;;;;;;5053614;28;20229;-89
2023/09/06 05:47:27;;;;;;;5.30;3.30;;;;;;;;;;5053856;28;20205;-89
2023/09/06 05:49:55;;;;;;;7.83;3.73;;;;;;;;;;5040891;28;20202;-89
2023/09/06 05:52:23;;;;;;;10.93;5.60;;;;;;;;;;5054352;28;20190;-89
2023/09/06 05:54:50;;;;;;;3.63;3.30;;;;;;;;;;5053303;28;20186;-86
2023/09/06 05:57:18;;;;;;;6.67;2.90;;;;;;;;;;5052803;28;20229;-86
2023/09/06 05:59:46;;;;;;;3.97;3.50;;;;;;;;;;5052203;28;20205;-86
2023/09/06 06:02:14;;;;;;;7.67;3.97;;;;;;;;;;5052169;28;20202;-87
2023/09/06 06:04:45;;;;;;;7.70;3.70;;;;;;;;;;5052759;28;20202;-86
2023/09/06 06:07:12;;;;;;;9.37;4.70;;;;;;;;;;5053114;28;20226;-86
2023/09/06 06:09:39;;;;;;;5.60;4.03;;;;;;;;;;5053038;28;20267;-86
2023/09/06 06:12:07;;;;;;;7.87;4.47;;;;;;;;;;5053506;28;20204;-89
2023/09/06 06:14:36;;;;;;;5.90;4.70;;;;;;;;;;5062732;28;20210;-87
2023/09/06 06:17:05;;;;;;;7.77;5.80;;;;;;;;;;5057220;28;20226;-88
2023/09/06 06:19:33;;;;;;;6.67;5.70;;;;;;;;;;5049335;28;20260;-87
2023/09/06 06:22:01;;;;;;;6.73;4.83;;;;;;;;;;5056906;28;20721;-87
2023/09/06 06:24:28;;;;;;;6.67;5.57;;;;;;;;;;5057032;28;20742;-87
2023/09/06 06:26:55;;;;;;;8.20;5.67;;;;;;;;;;5056822;28;20314;-88
2023/09/06 06:29:23;;;;;;;6.50;5.10;;;;;;;;;;5056926;28;20213;-87
2023/09/06 06:31:50;;;;;;;7.67;6.40;;;;;;;;;;5057066;28;20283;-87
2023/09/06 06:34:19;;;;;;;7.07;5.60;;;;;;;;;;5052914;28;20226;-88
2023/09/06 06:36:46;;;;;;;8.10;5.50;;;;;;;;;;5056635;28;20281;-88
2023/09/06 06:39:14;;;;;;;6.57;5.87;;;;;;;;;;5053408;28;20213;-87
2023/09/06 06:41:40;;;;;;;6.17;5.50;;;;;;;;;;5053669;28;20250;-87
2023/09/06 06:44:08;;;;;;;6.07;5.33;;;;;;;;;;5055412;28;20194;-88
2023/09/06 06:46:36;;;;;;;12.80;7.17;;;;;;;;;;5055611;28;20833;-88
2023/09/06 06:49:04;;;;;;;8.57;5.80;;;;;;;;;;5055909;28;20786;-88
2023/09/06 06:51:38;;;;;;;6.97;5.57;;;;;;;;;;5055234;28;20238;-88
2023/09/06 06:54:05;;;;;;;6.70;5.87;;;;;;;;;;5056615;28;20337;-88
2023/09/06 06:56:32;;;;;;;6.00;5.40;;;;;;;;;;5055263;28;20214;-88
2023/09/06 06:59:00;;;;;;;7.23;5.53;;;;;;;;;;5055944;28;20190;-88
2023/09/06 07:01:27;;;;;;;6.90;6.03;;;;;;;;;;5055413;28;20226;-88
2023/09/06 07:03:55;;;;;;;7.77;5.97;;;;;;;;;;5055412;28;20202;-88
2023/09/06 07:06:22;;;;;;;6.50;5.80;;;;;;;;;;5054164;28;20242;-88
2023/09/06 07:08:51;;;;;;;7.20;6.00;;;;;;;;;;5054469;28;20296;-88
2023/09/06 07:11:18;;;;;;;7.53;5.90;;;;;;;;;;5055103;28;20234;-88
2023/09/06 07:13:47;;;;;;;8.20;5.80;;;;;;;;;;5056195;28;20226;-88
2023/09/06 07:16:15;;;;;;;10.20;6.37;;;;;;;;;;5055846;28;20238;-88
2023/09/06 07:18:42;;;;;;;5.97;5.37;;;;;;;;;;5055999;28;20232;-88
2023/09/06 07:21:09;;;;;;;7.63;5.40;;;;;;;;;;5055794;28;20226;-88
2023/09/06 07:23:36;;;;;;;6.30;5.10;;;;;;;;;;5049014;28;20209;-88
2023/09/06 07:26:05;;;;;;;6.53;5.03;;;;;;;;;;5056387;28;20244;-88
2023/09/06 07:28:37;;;;;;;6.97;5.33;;;;;;;;;;5055513;28;20198;-88
2023/09/06 07:31:04;;;;;;;6.53;4.50;;;;;;;;;;5056158;28;20229;-88
2023/09/06 07:33:31;;;;;;;5.23;4.73;;;;;;;;;;5055460;28;20206;-88
2023/09/06 07:35:58;;;;;;;6.13;4.50;;;;;;;;;;5052068;28;20225;-88
2023/09/06 07:38:25;;;;;;;5.77;4.20;;;;;;;;;;5055584;28;20245;-88
2023/09/06 07:40:57;;;;;;;4.57;3.97;;;;;;;;;;5055144;28;20230;-88
2023/09/06 07:43:28;;;;;;;4.73;4.33;;;;;;;;;;5056732;28;20285;-88
2023/09/06 07:45:56;;;;;;;5.47;4.23;;;;;;;;;;5060589;28;20373;-88
2023/09/06 07:48:23;;;;;;;4.70;3.90;;;;;;;;;;5060234;28;20273;-90
2023/09/06 07:50:51;;;;;;;3.90;3.60;;;;;;;;;;5057188;28;20707;-88
2023/09/06 07:53:18;;;;;;;4.40;3.50;;;;;;;;;;5057467;28;20209;-90
2023/09/06 07:55:46;;;;;;;4.27;3.70;;;;;;;;;;5055234;28;20241;-90
2023/09/06 07:58:13;;;;;;;3.83;3.53;;;;;;;;;;5055122;28;20237;-89
2023/09/06 08:00:42;;;;;;;3.85;3.30;;;;;;;;;;5054647;28;20727;-86
2023/09/06 08:03:09;;;;;;;4.97;3.45;;;;;;;;;;5054137;28;20222;-87
2023/09/06 08:05:36;;;;;;;4.68;3.58;;;;;;;;;;5054040;28;20210;-86
2023/09/06 08:08:04;;;;;;;3.40;3.10;;;;;;;;;;5057458;28;20228;-87
2023/09/06 08:10:32;;;;;;;5.68;3.40;;;;;;;;;;5055667;28;20328;-88
2023/09/06 08:12:59;;;;;;;4.13;3.35;;;;;;;;;;5052782;28;20208;-86
2023/09/06 08:15:27;;;;;;;4.13;3.00;;;;;;;;;;5052674;28;20280;-87
2023/09/06 08:17:55;;;;;;;3.63;3.33;;;;;;;;;;5052114;28;20616;-84
2023/09/06 08:20:22;;;;;;;4.55;3.08;;;;;;;;;;5051504;28;20231;-86
2023/09/06 08:22:50;;;;;;;4.10;3.30;;;;;;;;;;5053234;28;20206;-86
2023/09/06 08:25:18;;;;;;;4.68;3.05;;;;;;;;;;5052742;28;20229;-85
2023/09/06 08:27:45;;;;;;;3.80;3.25;;;;;;;;;;5052085;28;20233;-85
2023/09/06 08:30:13;;;;;;;6.63;3.03;;;;;;;;;;5048776;28;20236;-86
2023/09/06 08:32:40;;;;;;;4.20;3.10;;;;;;;;;;5049875;28;20218;-84
2023/09/06 08:35:11;;;;;;;4.30;3.40;;;;;;;;;;5052378;28;20229;-86
2023/09/06 08:37:38;;;;;;;3.20;3.00;;;;;;;;;;5050910;28;20256;-86
2023/09/06 08:40:06;;;;;;;3.45;3.08;;;;;;;;;;5052592;28;20622;-87
2023/09/06 08:42:34;;;;;;;3.50;3.10;;;;;;;;;;5052039;28;20210;-87
2023/09/06 08:45:01;;;;;;;6.28;3.58;;;;;;;;;;5052036;28;20233;-85
2023/09/06 08:47:29;;;;;;;4.60;3.28;;;;;;;;;;5052106;28;20230;-87
2023/09/06 08:49:56;;;;;;;3.42;3.13;;;;;;;;;;5051141;28;20677;-86
2023/09/06 08:52:25;;;;;;;4.88;3.05;;;;;;;;;;5051670;28;20213;-86
2023/09/06 08:54:52;;;;;;;3.50;3.17;;;;;;;;;;5052343;28;20672;-87
2023/09/06 08:57:20;;;;;;;3.53;3.05;;;;;;;;;;5052790;28;20226;-85
2023/09/06 08:59:48;;;;;;;3.15;2.78;;;;;;;;;;5052677;28;20204;-86
2023/09/06 09:02:16;;;;;;;3.53;2.90;;;;;;;;;;5053448;28;20292;-87
2023/09/06 09:04:43;;;;;;;5.05;2.92;;;;;;;;;;5051635;28;20210;-86
2023/09/06 09:07:10;;;;;;;2.92;2.70;;;;;;;;;;5053427;28;20248;-87
2023/09/06 09:09:52;;;;;;;3.00;2.70;;;;;;;;;;5053095;28;20198;-85
2023/09/06 09:12:23;;;;;;;3.50;3.15;;;;;;;;;;5053914;28;20224;-87
2023/09/06 09:14:50;;;;;;;3.58;3.28;;;;;;;;;;5052745;28;20665;-90
2023/09/06 09:17:21;;;;;;;3.28;2.97;;;;;;;;;;5053017;28;20226;-90
2023/09/06 09:19:49;;;;;;;3.15;2.85;;;;;;;;;;5045732;28;20198;-85
2023/09/06 09:22:16;;;;;;;3.22;2.63;;;;;;;;;;5052433;28;20305;-84
2023/09/06 09:24:44;;;;;;;5.45;3.00;;;;;;;;;;5050954;28;20714;-88
2023/09/06 09:27:12;;;;;;;3.58;2.90;;;;;;;;;;5052164;28;20230;-88
2023/09/06 09:29:41;;;;;;;3.42;3.00;;;;;;;;;;5052729;28;20218;-87
2023/09/06 09:32:08;;;;;;;3.20;2.90;;;;;;;;;;5053514;28;20684;-90
2023/09/06 09:34:36;;;;;;;3.75;3.20;;;;;;;;;;5052192;28;20239;-90
2023/09/06 09:37:05;;;;;;;2.90;2.70;;;;;;;;;;5053978;28;20233;-91
2023/09/06 09:39:32;;;;;;;3.30;3.00;;;;;;;;;;5054395;28;20303;-88
2023/09/06 09:41:59;;;;;;;3.85;2.70;;;;;;;;;;5054003;28;20228;-90
2023/09/06 09:44:26;;;;;;;3.40;3.10;;;;;;;;;;5056236;28;20297;-91
2023/09/06 09:46:57;;;;;;;4.30;3.22;;;;;;;;;;5054752;28;20785;-90
2023/09/06 09:49:24;;;;;;;3.33;3.03;;;;;;;;;;5056876;28;20252;-89
2023/09/06 09:51:52;;;;;;;3.15;2.92;;;;;;;;;;5050761;28;20229;-90
2023/09/06 09:54:22;;;;;;;3.00;2.80;;;;;;;;;;5058456;28;20908;-89
2023/09/06 09:57:05;;;;;;;3.47;3.15;;;;;;;;;;5060237;28;20232;-91
2023/09/06 09:59:33;;;;;;;3.08;2.78;;;;;;;;;;5059888;28;20255;-91
2023/09/06 10:02:03;;;;;;;3.85;3.45;;;;;;;;;;5060472;28;20249;-91
2023/09/06 10:04:31;;;;;;;3.60;2.92;;;;;;;;;;5059815;28;20229;-90
2023/09/06 10:06:58;;;;;;;3.40;3.10;;;;;;;;;;5058621;28;20229;-90
2023/09/06 10:09:26;;;;;;;3.38;3.08;;;;;;;;;;5058444;28;20206;-89
2023/09/06 10:11:53;;;;;;;3.42;3.10;;;;;;;;;;5057536;28;20225;-90
2023/09/06 10:14:25;;;;;;;3.17;2.95;;;;;;;;;;5056451;28;20201;-89
2023/09/06 10:16:53;;;;;;;3.13;2.85;;;;;;;;;;5050103;28;20697;-90
2023/09/06 10:19:22;;;;;;;3.38;3.10;;;;;;;;;;5058570;28;20218;-90
2023/09/06 10:21:49;;;;;;;3.25;2.95;;;;;;;;;;5060718;28;20236;-89
2023/09/06 10:24:17;;;;;;;2.88;2.65;;;;;;;;;;5058041;28;20202;-90
2023/09/06 10:26:45;;;;;;;3.47;2.97;;;;;;;;;;5056933;28;20287;-90
2023/09/06 10:29:12;;;;;;;3.58;2.90;;;;;;;;;;5058950;28;20206;-91
2023/09/06 10:31:47;;;;;;;2.85;2.58;;;;;;;;;;5058146;28;20213;-89
2023/09/06 10:34:14;;;;;;;3.67;2.95;;;;;;;;;;5059643;28;20190;-90
2023/09/06 10:36:53;;;;;;;3.20;2.80;;;;;;;;;;5058952;28;20234;-91
2023/09/06 10:39:22;;;;;;;2.63;2.47;;;;;;;;;;5059318;28;20206;-91
2023/09/06 10:42:07;;;;;;;5.75;2.65;;;;;;;;;;5058001;28;20238;-93
2023/09/06 10:44:49;;;;;;;3.47;3.00;;;;;;;;;;5058860;28;20210;-91
2023/09/06 10:47:26;;;;;;;4.00;2.85;;;;;;;;;;5057942;28;20229;-89
2023/09/06 10:50:08;;;;;;;3.90;2.78;;;;;;;;;;5050185;28;20217;-89
2023/09/06 10:52:44;;;;;;;2.90;2.70;;;;;;;;;;5057084;28;20213;-89
2023/09/06 10:55:13;;;;;;;3.10;2.80;;;;;;;;;;5056657;28;20320;-89
2023/09/06 10:57:58;;;;;;;3.42;2.50;;;;;;;;;;5055975;28;20222;-88
2023/09/06 11:00:26;;;;;;;3.08;2.78;;;;;;;;;;5056220;28;20606;-87
2023/09/06 11:03:13;;;;;;;4.57;2.80;;;;;;;;;;5059746;28;20297;-87
2023/09/06 11:05:42;;;;;;;2.88;2.67;;;;;;;;;;5056326;28;20233;-87
2023/09/06 11:08:13;;;;;;;3.35;2.53;;;;;;;;;;5051781;28;20224;-88
2023/09/06 11:10:40;;;;;;;3.05;2.85;;;;;;;;;;5054954;28;20715;-87
2023/09/06 11:13:11;;;;;;;2.90;2.70;;;;;;;;;;5056406;28;20214;-87
2023/09/06 11:15:38;;;;;;;3.53;2.90;;;;;;;;;;5055119;28;20232;-87
2023/09/06 11:18:05;;;;;;;2.90;2.58;;;;;;;;;;5055723;28;20232;-86
2023/09/06 11:20:33;;;;;;;2.88;2.45;;;;;;;;;;5054622;28;20610;-87
2023/09/06 11:23:01;;;;;;;4.43;2.50;;;;;;;;;;5055953;28;20213;-87
2023/09/06 11:25:30;;;;;;;4.68;2.60;;;;;;;;;;5055240;28;20236;-88
2023/09/06 11:27:59;;;;;;;5.85;2.70;;;;;;;;;;5055736;28;20206;-86
2023/09/06 11:30:31;;;;;;;2.95;2.35;;;;;;;;;;5054348;28;20234;-87
2023/09/06 11:32:58;;;;;;;2.63;2.33;;;;;;;;;;5055915;28;20300;-87
2023/09/06 11:35:28;;;;;;;3.53;2.70;;;;;;;;;;5053590;28;20234;-87
2023/09/06 11:37:56;;;;;;;2.35;2.15;;;;;;;;;;5054455;28;20222;-87
2023/09/06 11:40:27;;;;;;;2.75;2.55;;;;;;;;;;5053952;28;20230;-87
2023/09/06 11:42:57;;;;;;;3.45;2.50;;;;;;;;;;5047328;28;20237;-87
2023/09/06 11:45:28;;;;;;;2.35;2.15;;;;;;;;;;5058375;28;20270;-88
2023/09/06 11:47:57;;;;;;;2.47;1.92;;;;;;;;;;5055126;28;20218;-88
2023/09/06 11:50:24;;;;;;;2.60;2.40;;;;;;;;;;5054806;28;20241;-88
2023/09/06 11:52:53;;;;;;;2.55;2.35;;;;;;;;;;5055176;28;20201;-89
2023/09/06 11:55:21;;;;;;;2.35;2.15;;;;;;;;;;5055538;28;20241;-88
2023/09/06 11:57:51;;;;;;;3.55;2.30;;;;;;;;;;5055274;28;20615;-88
2023/09/06 12:00:27;;;;;;;2.30;2.20;;;;;;;;;;5054779;28;20233;-88
2023/09/06 12:02:55;;;;;;;2.97;2.20;;;;;;;;;;5055691;28;20234;-87
2023/09/06 12:05:26;;;;;;;2.30;2.10;;;;;;;;;;5054688;28;20715;-87
2023/09/06 12:07:55;;;;;;;2.42;2.13;;;;;;;;;;5054887;28;20226;-88
2023/09/06 12:10:22;;;;;;;2.50;2.30;;;;;;;;;;5054562;28;20655;-88
2023/09/06 12:12:51;;;;;;;2.30;2.10;;;;;;;;;;5055047;28;20216;-87
2023/09/06 12:15:19;;;;;;;2.60;2.40;;;;;;;;;;5054428;28;20245;-87
2023/09/06 12:17:48;;;;;;;3.00;2.28;;;;;;;;;;5054077;28;20226;-88
2023/09/06 12:20:19;;;;;;;3.72;2.35;;;;;;;;;;5055359;28;20268;-88
2023/09/06 12:22:46;;;;;;;2.35;2.15;;;;;;;;;;5054276;28;20213;-90
2023/09/06 12:25:14;;;;;;;2.50;2.25;;;;;;;;;;5054545;28;20711;-87
2023/09/06 12:27:41;;;;;;;2.15;1.95;;;;;;;;;;5053959;28;20226;-88
2023/09/06 12:30:09;;;;;;;2.28;2.08;;;;;;;;;;5053787;28;20229;-89
2023/09/06 12:32:37;;;;;;;2.35;2.17;;;;;;;;;;5055236;28;20224;-88
2023/09/06 12:35:07;;;;;;;2.22;1.73;;;;;;;;;;5053779;28;20252;-89
2023/09/06 12:37:36;;;;;;;3.33;2.00;;;;;;;;;;5054226;28;20235;-87
2023/09/06 12:40:10;;;;;;;3.65;2.05;;;;;;;;;;5053501;28;20237;-87
2023/09/06 12:42:37;;;;;;;2.55;2.13;;;;;;;;;;5054613;28;20201;-88
2023/09/06 12:45:04;;;;;;;2.30;2.10;;;;;;;;;;5053563;28;20303;-86
2023/09/06 12:47:31;;;;;;;3.38;2.20;;;;;;;;;;5053364;28;20248;-87
2023/09/06 12:49:59;;;;;;;3.22;2.28;;;;;;;;;;5053361;28;20240;-87
2023/09/06 12:52:29;;;;;;;2.47;2.08;;;;;;;;;;5053922;28;20233;-88
2023/09/06 12:54:56;;;;;;;3.05;2.20;;;;;;;;;;5053493;28;20233;-86
2023/09/06 12:57:23;;;;;;;3.30;2.35;;;;;;;;;;5052850;28;20522;-87
2023/09/06 12:59:50;;;;;;;2.00;1.90;;;;;;;;;;5051084;28;20746;-88
2023/09/06 13:02:17;;;;;;;2.53;2.22;;;;;;;;;;5053371;28;20574;-88
2023/09/06 13:04:47;;;;;;;4.13;2.45;;;;;;;;;;5053102;28;20259;-87
2023/09/06 13:07:14;;;;;;;2.03;1.85;;;;;;;;;;5053610;28;20232;-88
2023/09/06 13:09:43;;;;;;;2.00;1.90;;;;;;;;;;5053527;28;20198;-87
2023/09/06 13:12:10;;;;;;;2.85;2.03;;;;;;;;;;5054094;28;20200;-89
2023/09/06 13:14:37;;;;;;;2.33;2.13;;;;;;;;;;5053235;28;20297;-87
2023/09/06 13:17:05;;;;;;;2.58;2.38;;;;;;;;;;5053482;28;20233;-88
2023/09/06 13:19:32;;;;;;;4.75;2.30;;;;;;;;;;5053099;28;20225;-88
2023/09/06 13:21:59;;;;;;;2.33;2.00;;;;;;;;;;5052297;28;20721;-90
2023/09/06 13:24:27;;;;;;;2.65;2.45;;;;;;;;;;5051977;28;20676;-90
2023/09/06 13:26:55;;;;;;;3.03;2.13;;;;;;;;;;5053292;28;20229;-89
2023/09/06 13:29:22;;;;;;;2.72;2.15;;;;;;;;;;5057594;28;20217;-90
2023/09/06 13:31:51;;;;;;;2.15;1.95;;;;;;;;;;5055418;28;20276;-90
2023/09/06 13:34:19;;;;;;;2.10;2.00;;;;;;;;;;5053970;28;20308;-87
2023/09/06 13:36:46;;;;;;;2.40;2.15;;;;;;;;;;5051173;28;20226;-87
2023/09/06 13:39:15;;;;;;;4.97;2.03;;;;;;;;;;5053003;28;20601;-87
2023/09/06 13:41:42;;;;;;;2.50;2.30;;;;;;;;;;5050805;28;20231;-86
2023/09/06 13:44:10;;;;;;;3.35;2.25;;;;;;;;;;5053358;28;20217;-86
2023/09/06 13:46:37;;;;;;;4.65;2.25;;;;;;;;;;5052375;28;20233;-86
2023/09/06 13:49:07;;;;;;;2.88;2.17;;;;;;;;;;5047908;28;20201;-88
2023/09/06 13:51:34;;;;;;;2.88;2.60;;;;;;;;;;5052218;28;20261;-87
2023/09/06 13:54:01;;;;;;;7.32;2.20;;;;;;;;;;5052340;28;20194;-86
2023/09/06 13:56:28;;;;;;;3.85;2.65;;;;;;;;;;5052434;28;20323;-86
2023/09/06 13:58:55;;;;;;;2.20;2.00;;;;;;;;;;5052335;28;20237;-87
2023/09/06 14:01:24;;;;;;;3.53;2.35;;;;;;;;;;5051141;28;20238;-84
2023/09/06 14:03:51;;;;;;;2.33;2.13;;;;;;;;;;5050957;28;20206;-88
2023/09/06 14:06:19;;;;;;;3.17;2.10;;;;;;;;;;5047296;28;20237;-87
2023/09/06 14:08:46;;;;;;;2.47;2.28;;;;;;;;;;5052290;28;20695;-87
2023/09/06 14:11:14;;;;;;;2.95;2.28;;;;;;;;;;5052252;28;20240;-87
2023/09/06 14:13:41;;;;;;;2.10;2.00;;;;;;;;;;5053870;28;20263;-88
2023/09/06 14:16:09;;;;;;;2.50;2.20;;;;;;;;;;5052728;28;20226;-87
2023/09/06 14:18:38;;;;;;;2.15;2.00;;;;;;;;;;5053641;28;20210;-89
2023/09/06 14:21:05;;;;;;;2.55;2.30;;;;;;;;;;5052517;28;20222;-86
2023/09/06 14:23:32;;;;;;;3.30;2.00;;;;;;;;;;5052508;28;20212;-88
2023/09/06 14:25:59;;;;;;;2.00;1.80;;;;;;;;;;5052484;28;20305;-91
2023/09/06 14:28:26;;;;;;;2.92;2.28;;;;;;;;;;5055305;28;20212;-91
2023/09/06 14:30:53;;;;;;;3.10;2.33;;;;;;;;;;5058561;28;20222;-95
2023/09/06 14:33:20;;;;;;;12.18;5.05;;;;;;;;;;5059730;28;20216;-95
2023/09/06 14:35:49;;;;;;;4.50;2.28;;;;;;;;;;5058436;28;20230;-91
2023/09/06 14:38:17;;;;;;;3.90;2.00;;;;;;;;;;5059375;28;20210;-92
2023/09/06 14:40:44;;;;;;;2.22;2.03;;;;;;;;;;5060608;28;20320;-96
2023/09/06 14:43:13;;;;;;;4.60;2.10;;;;;;;;;;5060886;28;20259;-91
2023/09/06 14:45:41;;;;;;;2.42;2.22;;;;;;;;;;5058576;28;20715;-90
2023/09/06 14:48:08;;;;;;;3.08;2.03;;;;;;;;;;5060232;28;20222;-89
2023/09/06 14:50:36;;;;;;;3.38;2.03;;;;;;;;;;5060135;28;20233;-88